Emu Arrow — C6OR4 — position and weather

sailwx.info

Track history (hours):
 
Tides and Currents Weather Stations Pressure Air Temp Water Temp Dewpoint Dewpoint Depression Visibility Wind Speed Wind Dir Waves Ship Positions

Emu Arrow

Last reported at 2015-Aug-27 22:07 UTC. Time now 2015-Aug-31 23:55 UTC.
Position N 37°31' E 137°34'.

Length 200 m; draft 9.6 m.

Type: Cargo ship. MMSI: 309805000.

Date/timePositionNaut miles runAvg speedWind from/ knotsBaromVisibWave heightAir tempDewpointWater temp
2015-Aug-27 22:07N 37°31' E 137°34'911.9
2015-Aug-27 21:21N 37°36' E 137°24'  
2015-Aug-25 07:33N 33°59' E 134°53'3 2.5
2015-Aug-25 06:30N 34°01' E 134°51'1 0.8
2015-Aug-25 05:11N 34°02' E 134°51'1 0.9
2015-Aug-25 04:19N 34°02' E 134°51'1 1.2
2015-Aug-25 03:33N 34°02' E 134°53'1 1.1
2015-Aug-25 02:13N 34°02' E 134°51'2 2.5
2015-Aug-25 01:32N 34°03' E 134°49'1 1.3
2015-Aug-25 00:29N 34°02' E 134°48'2 1.9
2015-Aug-24 23:32N 34°03' E 134°50'1 1.3
2015-Aug-24 22:25N 34°02' E 134°50'2 1.5
2015-Aug-24 21:23N 34°02' E 134°52'1 1.2
2015-Aug-24 20:33N 34°03' E 134°53'0 0.4
2015-Aug-24 19:32N 34°03' E 134°53'4 3.6
2015-Aug-24 18:33N 34°06' E 134°53'1111.2
2015-Aug-24 17:33N 34°17' E 134°58'1212.3
2015-Aug-24 16:33N 34°27' E 135°06'1313.1
2015-Aug-24 15:33N 34°35' E 135°19'5 5.2
2015-Aug-24 14:33N 34°38' E 135°24'0 0.0
2015-Aug-24 13:33N 34°38' E 135°24'0 0.0
2015-Aug-24 12:33N 34°38' E 135°24'0 0.0
2015-Aug-24 11:33N 34°38' E 135°24'0 0.0
2015-Aug-24 10:27N 34°38' E 135°24'0 0.0
2015-Aug-24 09:15N 34°38' E 135°24'0 0.0
2015-Aug-24 08:33N 34°38' E 135°24'0 0.0
2015-Aug-24 07:33N 34°38' E 135°24'0 0.0
2015-Aug-24 06:21N 34°38' E 135°24'0 0.0
2015-Aug-24 05:33N 34°38' E 135°24'0 0.0
2015-Aug-24 04:27N 34°38' E 135°24'0 0.0
2015-Aug-24 03:27N 34°38' E 135°24'0 0.0
2015-Aug-24 02:33N 34°38' E 135°24'0 0.0
2015-Aug-24 01:27N 34°38' E 135°24'0 0.0
2015-Aug-24 00:33N 34°38' E 135°24'0 0.0
2015-Aug-23 23:33N 34°38' E 135°24'0 0.0
2015-Aug-23 22:27N 34°38' E 135°24'0 0.0
2015-Aug-23 21:33N 34°38' E 135°24'0 0.0
2015-Aug-23 20:33N 34°38' E 135°24'0 0.0
2015-Aug-23 19:33N 34°38' E 135°24'0 0.0
2015-Aug-23 18:33N 34°38' E 135°24'0 0.0
2015-Aug-23 17:33N 34°38' E 135°24'0 0.0
2015-Aug-23 16:21N 34°38' E 135°24'0 0.0
2015-Aug-23 15:33N 34°38' E 135°24'0 0.0
2015-Aug-23 14:33N 34°38' E 135°24'0 0.0
2015-Aug-23 13:33N 34°38' E 135°24'0 0.0
2015-Aug-23 12:33N 34°38' E 135°24'0 0.0
2015-Aug-23 11:27N 34°38' E 135°24'0 0.0
2015-Aug-23 10:27N 34°38' E 135°24'0 0.0
2015-Aug-23 09:27N 34°38' E 135°24'0 0.0
2015-Aug-23 08:33N 34°38' E 135°24'0 0.0
2015-Aug-23 07:33N 34°38' E 135°24'0 0.0
2015-Aug-23 06:33N 34°38' E 135°24'0 0.0
2015-Aug-23 05:33N 34°38' E 135°24'0 0.0
2015-Aug-23 04:15N 34°38' E 135°24'0 0.0
2015-Aug-23 03:33N 34°38' E 135°24'0 0.0
2015-Aug-23 02:27N 34°38' E 135°24'0 0.0
2015-Aug-23 01:33N 34°38' E 135°24'0 0.0
2015-Aug-23 00:09N 34°38' E 135°24'0 0.0
2015-Aug-22 23:33N 34°38' E 135°24'0 0.0
2015-Aug-22 22:21N 34°38' E 135°24'0 0.0
2015-Aug-22 21:33N 34°38' E 135°24'0 0.0
2015-Aug-22 20:33N 34°38' E 135°24'0 0.0
2015-Aug-22 19:33N 34°38' E 135°24'0 0.0
2015-Aug-22 18:33N 34°38' E 135°24'0 0.0
2015-Aug-22 17:33N 34°38' E 135°24'0 0.0
2015-Aug-22 16:33N 34°38' E 135°24'0 0.0
2015-Aug-22 15:33N 34°38' E 135°24'0 0.0
2015-Aug-22 14:27N 34°38' E 135°24'0 0.0
2015-Aug-22 13:33N 34°38' E 135°24'0 0.0
2015-Aug-22 12:33N 34°38' E 135°24'0 0.0
2015-Aug-22 11:33N 34°38' E 135°24'0 0.0
2015-Aug-22 10:33N 34°38' E 135°24'0 0.0
2015-Aug-22 09:33N 34°38' E 135°24'0 0.0
2015-Aug-22 08:33N 34°38' E 135°24'0 0.0
2015-Aug-22 07:33N 34°38' E 135°24'0 0.0
2015-Aug-22 06:33N 34°38' E 135°24'0 0.0
2015-Aug-22 05:33N 34°38' E 135°24'0 0.0
2015-Aug-22 04:34N 34°38' E 135°24'8 8.2
2015-Aug-22 03:34N 34°33' E 135°17'1312.8
2015-Aug-22 02:34N 34°24' E 135°05'1212.3
2015-Aug-22 01:34N 34°13' E 134°59'1110.7
2015-Aug-22 00:33N 34°02' E 134°59'  
2015-Aug-17 23:32N 34°55' E 139°24'11 9.6
2015-Aug-17 22:23N 35°02' E 139°35'  
Track history (hours):
 
Tides and Currents Weather Stations Pressure Air Temp Water Temp Dewpoint Dewpoint Depression Visibility Wind Speed Wind Dir Waves Ship Positions

Emu Arrow

Last reported at 2015-Aug-27 22:07 UTC. Time now 2015-Aug-31 23:55 UTC.
Position N 37°31' E 137°34'.

Length 200 m; draft 9.6 m.

Type: Cargo ship. MMSI: 309805000.

Date/timePositionNaut miles runAvg speedWind from/ knotsBaromVisibWave heightAir tempDewpointWater temp
2015-Aug-27 22:07N 37°31' E 137°34'911.9
2015-Aug-27 21:21N 37°36' E 137°24'  
2015-Aug-25 07:33N 33°59' E 134°53'3 2.5
2015-Aug-25 06:30N 34°01' E 134°51'1 0.8
2015-Aug-25 05:11N 34°02' E 134°51'1 0.9
2015-Aug-25 04:19N 34°02' E 134°51'1 1.2
2015-Aug-25 03:33N 34°02' E 134°53'1 1.1
2015-Aug-25 02:13N 34°02' E 134°51'2 2.5
2015-Aug-25 01:32N 34°03' E 134°49'1 1.3
2015-Aug-25 00:29N 34°02' E 134°48'2 1.9
2015-Aug-24 23:32N 34°03' E 134°50'1 1.3
2015-Aug-24 22:25N 34°02' E 134°50'2 1.5
2015-Aug-24 21:23N 34°02' E 134°52'1 1.2
2015-Aug-24 20:33N 34°03' E 134°53'0 0.4
2015-Aug-24 19:32N 34°03' E 134°53'4 3.6
2015-Aug-24 18:33N 34°06' E 134°53'1111.2
2015-Aug-24 17:33N 34°17' E 134°58'1212.3
2015-Aug-24 16:33N 34°27' E 135°06'1313.1
2015-Aug-24 15:33N 34°35' E 135°19'5 5.2
2015-Aug-24 14:33N 34°38' E 135°24'0 0.0
2015-Aug-24 13:33N 34°38' E 135°24'0 0.0
2015-Aug-24 12:33N 34°38' E 135°24'0 0.0
2015-Aug-24 11:33N 34°38' E 135°24'0 0.0
2015-Aug-24 10:27N 34°38' E 135°24'0 0.0
2015-Aug-24 09:15N 34°38' E 135°24'0 0.0
2015-Aug-24 08:33N 34°38' E 135°24'0 0.0
2015-Aug-24 07:33N 34°38' E 135°24'0 0.0
2015-Aug-24 06:21N 34°38' E 135°24'0 0.0
2015-Aug-24 05:33N 34°38' E 135°24'0 0.0
2015-Aug-24 04:27N 34°38' E 135°24'0 0.0
2015-Aug-24 03:27N 34°38' E 135°24'0 0.0
2015-Aug-24 02:33N 34°38' E 135°24'0 0.0
2015-Aug-24 01:27N 34°38' E 135°24'0 0.0
2015-Aug-24 00:33N 34°38' E 135°24'0 0.0
2015-Aug-23 23:33N 34°38' E 135°24'0 0.0
2015-Aug-23 22:27N 34°38' E 135°24'0 0.0
2015-Aug-23 21:33N 34°38' E 135°24'0 0.0
2015-Aug-23 20:33N 34°38' E 135°24'0 0.0
2015-Aug-23 19:33N 34°38' E 135°24'0 0.0
2015-Aug-23 18:33N 34°38' E 135°24'0 0.0
2015-Aug-23 17:33N 34°38' E 135°24'0 0.0
2015-Aug-23 16:21N 34°38' E 135°24'0 0.0
2015-Aug-23 15:33N 34°38' E 135°24'0 0.0
2015-Aug-23 14:33N 34°38' E 135°24'0 0.0
2015-Aug-23 13:33N 34°38' E 135°24'0 0.0
2015-Aug-23 12:33N 34°38' E 135°24'0 0.0
2015-Aug-23 11:27N 34°38' E 135°24'0 0.0
2015-Aug-23 10:27N 34°38' E 135°24'0 0.0
2015-Aug-23 09:27N 34°38' E 135°24'0 0.0
2015-Aug-23 08:33N 34°38' E 135°24'0 0.0
2015-Aug-23 07:33N 34°38' E 135°24'0 0.0
2015-Aug-23 06:33N 34°38' E 135°24'0 0.0
2015-Aug-23 05:33N 34°38' E 135°24'0 0.0
2015-Aug-23 04:15N 34°38' E 135°24'0 0.0
2015-Aug-23 03:33N 34°38' E 135°24'0 0.0
2015-Aug-23 02:27N 34°38' E 135°24'0 0.0
2015-Aug-23 01:33N 34°38' E 135°24'0 0.0
2015-Aug-23 00:09N 34°38' E 135°24'0 0.0
2015-Aug-22 23:33N 34°38' E 135°24'0 0.0
2015-Aug-22 22:21N 34°38' E 135°24'0 0.0
2015-Aug-22 21:33N 34°38' E 135°24'0 0.0
2015-Aug-22 20:33N 34°38' E 135°24'0 0.0
2015-Aug-22 19:33N 34°38' E 135°24'0 0.0
2015-Aug-22 18:33N 34°38' E 135°24'0 0.0
2015-Aug-22 17:33N 34°38' E 135°24'0 0.0
2015-Aug-22 16:33N 34°38' E 135°24'0 0.0
2015-Aug-22 15:33N 34°38' E 135°24'0 0.0
2015-Aug-22 14:27N 34°38' E 135°24'0 0.0
2015-Aug-22 13:33N 34°38' E 135°24'0 0.0
2015-Aug-22 12:33N 34°38' E 135°24'0 0.0
2015-Aug-22 11:33N 34°38' E 135°24'0 0.0
2015-Aug-22 10:33N 34°38' E 135°24'0 0.0
2015-Aug-22 09:33N 34°38' E 135°24'0 0.0
2015-Aug-22 08:33N 34°38' E 135°24'0 0.0
2015-Aug-22 07:33N 34°38' E 135°24'0 0.0
2015-Aug-22 06:33N 34°38' E 135°24'0 0.0
2015-Aug-22 05:33N 34°38' E 135°24'0 0.0
2015-Aug-22 04:34N 34°38' E 135°24'8 8.2
2015-Aug-22 03:34N 34°33' E 135°17'1312.8
2015-Aug-22 02:34N 34°24' E 135°05'1212.3
2015-Aug-22 01:34N 34°13' E 134°59'1110.7
2015-Aug-22 00:33N 34°02' E 134°59'  
2015-Aug-17 23:32N 34°55' E 139°24'11 9.6
2015-Aug-17 22:23N 35°02' E 139°35'  

Dump ship's entire track history